createdAt,value
2022-10-18T00:00:29.250Z,9.05
2022-10-18T00:05:31.390Z,8.81
2022-10-18T00:10:31.211Z,8.84
2022-10-18T00:15:32.901Z,8.78
2022-10-18T00:20:33.006Z,8.87
2022-10-18T00:25:33.546Z,8.93
2022-10-18T00:30:38.628Z,8.41
2022-10-18T00:35:45.652Z,8.52
2022-10-18T00:40:46.879Z,8.46
2022-10-18T00:45:48.169Z,8.59
2022-10-18T00:50:47.089Z,8.15
2022-10-18T00:55:45.531Z,8.23
2022-10-18T01:00:44.482Z,8.45
2022-10-18T01:05:47.260Z,8.38
2022-10-18T01:10:59.870Z,8.37
2022-10-18T01:16:14.168Z,8.42
2022-10-18T01:21:34.962Z,8.33
2022-10-18T01:26:34.415Z,8.38
2022-10-18T01:32:02.605Z,7.96
2022-10-18T01:37:05.539Z,8.15
2022-10-18T01:42:09.363Z,8.01
2022-10-18T01:47:09.927Z,7.95
2022-10-18T01:52:13.838Z,7.90
2022-10-18T01:57:20.824Z,8.17
2022-10-18T02:02:54.365Z,7.98
2022-10-18T02:08:18.986Z,7.85
2022-10-18T02:13:27.677Z,7.83
2022-10-18T02:18:31.584Z,7.87
2022-10-18T02:23:33.880Z,7.68
2022-10-18T02:28:35.484Z,7.86
2022-10-18T02:33:49.789Z,7.66
2022-10-18T02:38:57.068Z,7.93
2022-10-18T02:43:55.831Z,7.94
2022-10-18T02:48:57.678Z,7.84
2022-10-18T02:53:56.731Z,7.93
2022-10-18T02:58:56.124Z,8.05
2022-10-18T03:04:23.147Z,7.72
2022-10-18T03:09:21.500Z,7.83
2022-10-18T03:14:24.195Z,7.87
2022-10-18T03:19:29.750Z,7.76
2022-10-18T03:24:32.569Z,7.56
2022-10-18T03:29:33.940Z,7.48
2022-10-18T03:34:38.750Z,7.40
2022-10-18T03:39:37.085Z,7.14
2022-10-18T03:44:35.766Z,7.30
2022-10-18T03:49:37.752Z,7.35
2022-10-18T03:54:37.620Z,7.40
2022-10-18T03:59:39.074Z,7.30
2022-10-18T04:04:41.027Z,7.37
2022-10-18T04:09:42.330Z,7.19
2022-10-18T04:14:43.773Z,7.40
2022-10-18T04:19:43.401Z,7.34
2022-10-18T04:24:44.973Z,7.34
2022-10-18T04:29:47.754Z,7.20
2022-10-18T04:35:17.387Z,7.51
2022-10-18T04:40:20.209Z,7.58
2022-10-18T04:45:19.476Z,7.51
2022-10-18T04:50:20.104Z,7.27
2022-10-18T04:55:20.948Z,7.38
2022-10-18T05:00:23.195Z,7.47
2022-10-18T05:05:43.484Z,6.91
2022-10-18T05:11:06.095Z,7.51
2022-10-18T05:16:09.225Z,7.17
2022-10-18T05:21:08.712Z,7.12
2022-10-18T05:26:10.172Z,7.18
2022-10-18T05:31:13.612Z,7.19
2022-10-18T05:36:12.388Z,7.18
2022-10-18T05:41:15.035Z,7.51
2022-10-18T05:46:15.969Z,7.32
2022-10-18T05:51:14.712Z,7.48
2022-10-18T05:56:16.233Z,7.82
2022-10-18T06:01:17.695Z,8.13
2022-10-18T06:06:19.384Z,8.22
2022-10-18T06:11:23.153Z,8.15
2022-10-18T06:16:29.806Z,8.25
2022-10-18T06:21:36.582Z,8.52
2022-10-18T06:26:34.802Z,8.75
2022-10-18T06:31:33.793Z,9.10
2022-10-18T06:36:35.262Z,9.24
2022-10-18T06:41:36.720Z,9.08
2022-10-18T06:46:49.679Z,9.13
2022-10-18T06:51:56.392Z,9.16
2022-10-18T06:56:59.933Z,9.30
2022-10-18T07:02:02.760Z,9.33
2022-10-18T07:07:01.897Z,9.53
2022-10-18T07:12:06.268Z,9.98
2022-10-18T07:17:07.260Z,10.19
2022-10-18T07:22:13.004Z,10.14
2022-10-18T07:27:17.172Z,10.41
2022-10-18T07:32:17.330Z,10.80
2022-10-18T07:37:15.577Z,10.75
2022-10-18T07:42:17.074Z,10.94
2022-10-18T07:47:19.610Z,11.08
2022-10-18T07:52:20.627Z,11.04
2022-10-18T07:57:35.588Z,11.19
2022-10-18T08:02:53.364Z,11.40
2022-10-18T08:07:52.279Z,11.61
2022-10-18T08:12:51.729Z,11.69
2022-10-18T08:23:35.171Z,11.91
2022-10-18T08:28:36.845Z,12.35
2022-10-18T08:33:42.579Z,12.47
2022-10-18T08:38:44.257Z,12.62
2022-10-18T08:43:50.160Z,12.60
2022-10-18T08:48:56.560Z,12.82
2022-10-18T08:54:19.694Z,13.03
2022-10-18T08:59:29.448Z,13.19
2022-10-18T09:04:59.957Z,13.63
2022-10-18T09:10:11.101Z,13.82
2022-10-18T09:15:39.355Z,14.10
2022-10-18T09:21:01.522Z,14.28
2022-10-18T09:26:14.729Z,14.51
2022-10-18T09:31:20.196Z,14.78
2022-10-18T09:36:26.584Z,14.76
2022-10-18T09:41:52.634Z,15.07
2022-10-18T09:47:07.076Z,15.24
2022-10-18T09:52:10.975Z,15.30
2022-10-18T09:57:41.772Z,15.37
2022-10-18T10:02:41.103Z,15.49
2022-10-18T10:07:44.880Z,15.71
2022-10-18T10:12:44.318Z,15.94
2022-10-18T10:17:43.435Z,15.90
2022-10-18T10:22:44.313Z,16.18
2022-10-18T10:27:46.497Z,16.32
2022-10-18T10:32:48.405Z,16.54
2022-10-18T10:37:51.680Z,16.36
2022-10-18T10:43:18.351Z,16.82
2022-10-18T10:48:28.797Z,16.93
2022-10-18T10:53:57.636Z,16.69
2022-10-18T10:59:01.479Z,16.48
2022-10-18T11:04:07.222Z,16.93
2022-10-18T11:09:12.967Z,16.81
2022-10-18T11:14:26.596Z,16.94
2022-10-18T11:20:13.982Z,17.08
2022-10-18T11:25:16.657Z,17.23
2022-10-18T11:30:38.188Z,17.51
2022-10-18T11:35:47.438Z,17.47
2022-10-18T11:40:56.922Z,17.70
2022-10-18T11:46:12.184Z,17.59
2022-10-18T11:52:03.597Z,17.56
2022-10-18T11:57:32.465Z,17.77
2022-10-18T12:03:01.400Z,17.72
2022-10-18T12:08:06.369Z,17.76
2022-10-18T12:13:06.276Z,17.93
2022-10-18T12:18:08.590Z,17.94
2022-10-18T12:23:47.735Z,18.07
2022-10-18T12:29:03.918Z,17.79
2022-10-18T12:34:20.164Z,17.89
2022-10-18T12:39:43.415Z,17.95
2022-10-18T12:44:44.079Z,17.86
2022-10-18T12:49:44.746Z,18.32
2022-10-18T12:55:03.643Z,18.39
2022-10-18T13:00:05.708Z,18.32
2022-10-18T13:05:53.795Z,18.62
2022-10-18T13:11:11.319Z,18.59
2022-10-18T13:16:40.568Z,18.76
2022-10-18T13:21:47.435Z,18.61
2022-10-18T13:26:59.199Z,18.86
2022-10-18T13:32:29.800Z,18.79
2022-10-18T13:37:31.210Z,18.77
2022-10-18T13:42:36.447Z,18.68
2022-10-18T13:47:37.455Z,18.74
2022-10-18T13:53:01.945Z,18.43
2022-10-18T13:58:14.937Z,18.37
2022-10-18T14:03:51.865Z,18.38
2022-10-18T14:09:25.405Z,18.43
2022-10-18T14:14:38.488Z,18.29
2022-10-18T14:19:47.469Z,18.36
2022-10-18T14:24:56.436Z,18.23
2022-10-18T14:30:15.208Z,18.06
2022-10-18T14:35:32.569Z,18.00
2022-10-18T14:40:42.278Z,17.92
2022-10-18T14:45:40.735Z,17.82
2022-10-18T14:50:42.422Z,17.76
2022-10-18T14:55:43.795Z,17.70
2022-10-18T15:00:52.041Z,17.42
2022-10-18T15:12:13.896Z,16.97
2022-10-18T15:17:23.218Z,16.83
2022-10-18T15:22:32.863Z,16.55
2022-10-18T15:28:23.260Z,16.46
2022-10-18T15:33:54.613Z,16.31
2022-10-18T15:39:26.189Z,16.17
2022-10-18T15:44:52.163Z,16.09
2022-10-18T15:50:48.992Z,15.73
2022-10-18T15:56:27.142Z,15.85
2022-10-18T16:02:02.491Z,15.56
2022-10-18T16:07:13.662Z,15.39
2022-10-18T16:12:15.670Z,15.39
2022-10-18T16:17:17.491Z,15.27
2022-10-18T16:22:37.207Z,15.24
2022-10-18T16:27:39.116Z,15.01
2022-10-18T16:32:53.544Z,14.86
2022-10-18T16:37:54.219Z,14.76
2022-10-18T16:42:51.981Z,14.66
2022-10-18T16:48:03.238Z,14.53
2022-10-18T16:53:56.005Z,14.65
2022-10-18T16:59:04.785Z,14.50
2022-10-18T17:04:04.485Z,14.47
2022-10-18T17:09:11.927Z,14.26
2022-10-18T17:14:16.919Z,14.17
2022-10-18T17:19:19.704Z,13.97
2022-10-18T17:24:26.581Z,13.99
2022-10-18T17:29:35.200Z,13.88
2022-10-18T17:34:42.311Z,13.74
2022-10-18T17:40:11.423Z,13.56
2022-10-18T17:45:31.073Z,13.53
2022-10-18T17:51:02.676Z,13.38
2022-10-18T17:56:09.381Z,13.23
2022-10-18T18:01:25.964Z,13.36
2022-10-18T18:06:36.051Z,13.36
2022-10-18T18:12:03.644Z,13.14
2022-10-18T18:17:56.815Z,13.05
2022-10-18T18:23:01.341Z,12.95
2022-10-18T18:28:05.138Z,13.13
2022-10-18T18:33:06.924Z,12.87
2022-10-18T18:38:05.423Z,12.81
2022-10-18T18:43:22.683Z,12.83
2022-10-18T18:48:30.397Z,12.86
2022-10-18T18:53:32.420Z,12.74
2022-10-18T18:58:32.184Z,12.67
2022-10-18T19:03:33.792Z,12.72
2022-10-18T19:08:36.098Z,12.50
2022-10-18T19:13:39.093Z,12.27
2022-10-18T19:18:39.295Z,12.07
2022-10-18T19:23:39.200Z,12.20
2022-10-18T19:28:37.336Z,12.29
2022-10-18T19:33:47.932Z,12.10
2022-10-18T19:38:57.858Z,12.07
2022-10-18T19:43:59.295Z,12.07
2022-10-18T19:48:58.507Z,11.85
2022-10-18T19:54:01.170Z,11.65
2022-10-18T19:59:06.232Z,11.71
2022-10-18T20:04:09.747Z,11.71
2022-10-18T20:09:13.360Z,11.51
2022-10-18T20:14:16.862Z,11.39
2022-10-18T20:19:18.958Z,11.39
2022-10-18T20:24:22.578Z,11.30
2022-10-18T20:29:26.678Z,11.01
2022-10-18T20:34:28.636Z,10.84
2022-10-18T20:39:28.226Z,10.94
2022-10-18T20:44:34.785Z,10.94
2022-10-18T20:49:35.931Z,10.98
2022-10-18T20:54:37.664Z,10.90
2022-10-18T20:59:38.897Z,10.98
2022-10-18T21:04:42.284Z,10.72
2022-10-18T21:09:44.528Z,10.85
2022-10-18T21:14:46.818Z,10.67
2022-10-18T21:19:45.934Z,10.94
2022-10-18T21:24:45.409Z,10.61
2022-10-18T21:29:48.883Z,10.66
2022-10-18T21:34:48.540Z,10.47
2022-10-18T21:39:50.641Z,10.43
2022-10-18T21:44:50.226Z,10.24
2022-10-18T21:49:53.428Z,10.20
2022-10-18T21:54:56.358Z,10.06
2022-10-18T21:59:59.686Z,10.13
2022-10-18T22:05:02.322Z,10.16
2022-10-18T22:10:05.084Z,10.24
2022-10-18T22:15:13.309Z,10.02
2022-10-18T22:20:15.192Z,9.94
2022-10-18T22:25:14.770Z,9.98
2022-10-18T22:30:16.392Z,9.99
2022-10-18T22:35:17.769Z,10.05
2022-10-18T22:40:33.081Z,9.81
2022-10-18T22:45:35.380Z,9.85
2022-10-18T22:50:36.006Z,9.85
2022-10-18T22:55:39.067Z,9.86
2022-10-18T23:00:42.672Z,9.81
2022-10-18T23:05:46.690Z,9.62
2022-10-18T23:10:46.218Z,9.59
2022-10-18T23:15:46.130Z,9.50
2022-10-18T23:20:46.178Z,9.65
2022-10-18T23:25:51.078Z,9.66
2022-10-18T23:30:53.692Z,9.65
2022-10-18T23:35:55.968Z,9.50
2022-10-18T23:40:54.955Z,9.53
2022-10-18T23:45:54.249Z,9.71
2022-10-18T23:50:55.634Z,9.30
2022-10-18T23:56:06.096Z,9.22
